createdAt,value
2022-11-25T00:00:11.276Z,4.56
2022-11-25T00:03:03.937Z,4.71
2022-11-25T00:05:56.479Z,4.61
2022-11-25T00:08:54.744Z,4.46
2022-11-25T00:11:47.215Z,4.54
2022-11-25T00:14:39.753Z,4.52
2022-11-25T00:17:32.233Z,4.55
2022-11-25T00:20:24.717Z,3.97
2022-11-25T00:23:17.221Z,4.22
2022-11-25T00:26:12.881Z,3.75
2022-11-25T00:29:08.509Z,3.93
2022-11-25T00:32:01.195Z,4.56
2022-11-25T00:34:53.703Z,4.24
2022-11-25T00:37:46.192Z,4.09
2022-11-25T00:40:38.681Z,3.77
2022-11-25T00:43:31.137Z,4.35
2022-11-25T00:46:23.633Z,4.45
2022-11-25T00:49:16.176Z,4.67
2022-11-25T00:52:12.908Z,4.82
2022-11-25T00:55:05.830Z,4.76
2022-11-25T00:57:58.286Z,4.77
2022-11-25T01:00:50.802Z,4.33
2022-11-25T01:03:43.323Z,4.37
2022-11-25T01:06:37.752Z,4.67
2022-11-25T01:09:30.384Z,4.34
2022-11-25T01:12:22.879Z,4.48
2022-11-25T01:15:15.406Z,4.36
2022-11-25T01:18:07.904Z,4.36
2022-11-25T01:21:11.223Z,4.53
2022-11-25T01:24:06.044Z,4.25
2022-11-25T01:26:58.734Z,4.35
2022-11-25T01:29:51.222Z,4.28
2022-11-25T01:32:43.696Z,4.21
2022-11-25T01:35:37.398Z,4.40
2022-11-25T01:38:31.164Z,4.27
2022-11-25T01:41:25.714Z,3.86
2022-11-25T01:44:21.398Z,3.61
2022-11-25T01:47:23.643Z,4.05
2022-11-25T01:50:21.665Z,4.26
2022-11-25T01:53:19.129Z,3.74
2022-11-25T01:56:11.722Z,3.95
2022-11-25T01:59:04.606Z,4.61
2022-11-25T02:02:00.322Z,4.08
2022-11-25T02:04:53.196Z,4.14
2022-11-25T02:07:49.839Z,4.09
2022-11-25T02:10:44.763Z,3.93
2022-11-25T02:13:38.308Z,4.28
2022-11-25T02:16:30.850Z,4.17
2022-11-25T02:19:39.131Z,4.28
2022-11-25T02:22:54.808Z,4.02
2022-11-25T02:25:47.503Z,4.23
2022-11-25T02:28:40.328Z,4.48
2022-11-25T02:31:32.922Z,4.32
2022-11-25T02:34:25.451Z,4.55
2022-11-25T02:37:21.078Z,4.40
2022-11-25T02:40:14.905Z,4.32
2022-11-25T02:43:07.475Z,4.53
2022-11-25T02:46:04.344Z,4.66
2022-11-25T02:49:14.530Z,4.68
2022-11-25T02:52:07.070Z,4.95
2022-11-25T02:54:59.566Z,5.07
2022-11-25T02:57:52.035Z,5.09
2022-11-25T03:00:45.755Z,4.99
2022-11-25T03:03:38.500Z,5.16
2022-11-25T03:06:30.999Z,5.41
2022-11-25T03:09:23.503Z,4.85
2022-11-25T03:12:15.996Z,4.49
2022-11-25T03:15:09.031Z,4.47
2022-11-25T03:18:03.117Z,4.20
2022-11-25T03:20:56.458Z,4.62
2022-11-25T03:23:49.001Z,4.76
2022-11-25T03:26:41.518Z,5.00
2022-11-25T03:29:33.998Z,5.10
2022-11-25T03:32:26.445Z,4.94
2022-11-25T03:35:18.983Z,4.60
2022-11-25T03:38:11.489Z,4.73
2022-11-25T03:41:03.982Z,5.43
2022-11-25T03:43:56.483Z,5.17
2022-11-25T03:46:48.981Z,5.36
2022-11-25T03:49:41.415Z,5.72
2022-11-25T03:52:33.874Z,5.28
2022-11-25T03:55:26.362Z,5.75
2022-11-25T03:58:18.822Z,5.85
2022-11-25T04:01:11.383Z,6.05
2022-11-25T04:04:04.564Z,5.95
2022-11-25T04:06:57.131Z,6.16
2022-11-25T04:09:49.611Z,5.32
2022-11-25T04:12:42.165Z,5.35
2022-11-25T04:15:34.740Z,5.94
2022-11-25T04:18:27.259Z,5.94
2022-11-25T04:21:19.770Z,5.77
2022-11-25T04:24:12.270Z,5.74
2022-11-25T04:27:04.760Z,6.01
2022-11-25T04:29:57.554Z,5.61
2022-11-25T04:32:50.119Z,5.65
2022-11-25T04:35:42.632Z,5.71
2022-11-25T04:38:35.308Z,5.73
2022-11-25T04:41:27.890Z,5.92
2022-11-25T04:44:20.385Z,5.90
2022-11-25T04:47:12.952Z,5.64
2022-11-25T04:50:08.900Z,5.86
2022-11-25T04:53:01.483Z,6.14
2022-11-25T04:55:53.950Z,5.65
2022-11-25T04:58:46.990Z,6.61
2022-11-25T05:01:39.536Z,6.44
2022-11-25T05:04:32.112Z,5.98
2022-11-25T05:07:28.110Z,7.16
2022-11-25T05:10:20.670Z,7.04
2022-11-25T05:13:13.137Z,7.22
2022-11-25T05:16:06.006Z,7.15
2022-11-25T05:18:58.460Z,6.15
2022-11-25T05:21:50.996Z,6.18
2022-11-25T05:24:44.499Z,6.28
2022-11-25T05:27:36.982Z,6.26
2022-11-25T05:30:29.529Z,5.82
2022-11-25T05:33:22.142Z,6.21
2022-11-25T05:36:14.620Z,6.38
2022-11-25T05:39:07.066Z,6.78
2022-11-25T05:41:59.591Z,6.34
2022-11-25T05:44:52.093Z,6.38
2022-11-25T05:47:44.600Z,6.51
2022-11-25T05:50:37.970Z,6.14
2022-11-25T05:53:31.661Z,6.94
2022-11-25T05:56:24.200Z,7.35
2022-11-25T05:59:16.717Z,7.20
2022-11-25T06:02:09.272Z,7.96
2022-11-25T06:05:01.893Z,7.07
2022-11-25T06:07:54.444Z,6.71
2022-11-25T06:10:46.984Z,6.62
2022-11-25T06:13:41.168Z,6.43
2022-11-25T06:16:33.721Z,6.54
2022-11-25T06:19:26.197Z,6.45
2022-11-25T06:22:18.695Z,6.39
2022-11-25T06:25:11.263Z,6.56
2022-11-25T06:28:12.795Z,6.88
2022-11-25T06:31:13.305Z,6.95
2022-11-25T06:34:05.892Z,6.55
2022-11-25T06:36:58.396Z,6.79
2022-11-25T06:39:51.013Z,6.98
2022-11-25T06:42:43.520Z,7.28
2022-11-25T06:45:35.979Z,7.03
2022-11-25T06:48:39.208Z,6.70
2022-11-25T06:51:30.809Z,6.23
2022-11-25T06:54:22.275Z,6.83
2022-11-25T06:57:18.590Z,7.12
2022-11-25T07:00:10.402Z,6.97
2022-11-25T07:03:01.868Z,7.46
2022-11-25T07:05:59.305Z,7.29
2022-11-25T07:08:50.938Z,7.58
2022-11-25T07:11:42.705Z,7.18
2022-11-25T07:14:34.507Z,6.60
2022-11-25T07:17:26.146Z,6.67
2022-11-25T07:20:17.633Z,6.33
2022-11-25T07:23:09.105Z,6.30
2022-11-25T07:26:15.560Z,6.15
2022-11-25T07:32:24.225Z,6.63
2022-11-25T07:35:15.675Z,6.30
2022-11-25T07:38:07.093Z,6.37
2022-11-25T07:41:09.909Z,6.39
2022-11-25T07:44:04.872Z,6.31
2022-11-25T07:46:56.337Z,6.61
2022-11-25T07:49:47.743Z,6.19
2022-11-25T07:52:40.339Z,6.35
2022-11-25T07:55:31.862Z,6.28
2022-11-25T07:58:23.242Z,6.09
2022-11-25T08:01:16.661Z,6.33
2022-11-25T08:04:11.886Z,6.32
2022-11-25T08:07:06.467Z,6.37
2022-11-25T08:09:57.867Z,6.48
2022-11-25T08:12:49.473Z,6.32
2022-11-25T08:15:40.900Z,6.53
2022-11-25T08:18:33.404Z,6.55
2022-11-25T08:21:24.893Z,6.69
2022-11-25T08:24:18.813Z,6.33
2022-11-25T08:27:10.199Z,6.63
2022-11-25T08:30:01.860Z,6.77
2022-11-25T08:32:53.667Z,7.03
2022-11-25T08:35:53.385Z,7.18
2022-11-25T08:38:47.821Z,7.25
2022-11-25T08:41:39.482Z,7.36
2022-11-25T08:44:31.100Z,7.75
2022-11-25T08:47:23.775Z,7.23
2022-11-25T08:50:15.719Z,7.32
2022-11-25T08:53:07.090Z,7.03
2022-11-25T08:55:58.474Z,6.39
2022-11-25T08:58:50.366Z,6.32
2022-11-25T09:01:41.823Z,6.45
2022-11-25T09:04:33.462Z,6.76
2022-11-25T09:07:30.572Z,6.70
2022-11-25T09:10:22.396Z,6.22
2022-11-25T09:13:13.976Z,5.68
2022-11-25T09:16:06.162Z,6.06
2022-11-25T09:18:57.588Z,6.67
2022-11-25T09:21:49.304Z,6.74
2022-11-25T09:24:40.827Z,6.46
2022-11-25T09:27:32.601Z,6.72
2022-11-25T09:30:25.182Z,6.06
2022-11-25T09:33:17.618Z,6.17
2022-11-25T09:36:11.285Z,5.59
2022-11-25T09:39:03.115Z,5.28
2022-11-25T09:42:10.445Z,4.99
2022-11-25T09:45:34.071Z,5.49
2022-11-25T09:48:44.103Z,4.48
2022-11-25T09:52:07.199Z,3.87
2022-11-25T09:55:25.260Z,3.45
2022-11-25T09:58:35.429Z,3.26
2022-11-25T10:01:29.823Z,3.27
2022-11-25T10:04:47.104Z,3.11
2022-11-25T10:07:46.194Z,3.30
2022-11-25T10:10:47.437Z,3.42
2022-11-25T10:14:17.283Z,3.67
2022-11-25T10:17:29.174Z,3.87
2022-11-25T10:20:22.343Z,3.45
2022-11-25T10:23:35.547Z,3.60
2022-11-25T10:26:41.702Z,3.43
2022-11-25T10:29:38.399Z,3.53
2022-11-25T10:32:40.949Z,3.66
2022-11-25T10:35:57.934Z,3.70
2022-11-25T10:39:02.603Z,3.24
2022-11-25T10:42:00.136Z,3.72
2022-11-25T10:44:51.963Z,3.86
2022-11-25T10:48:23.132Z,3.09
2022-11-25T10:51:35.385Z,3.28
2022-11-25T10:54:28.805Z,3.11
2022-11-25T10:57:21.231Z,3.65
2022-11-25T11:00:33.235Z,3.52
2022-11-25T11:03:26.819Z,3.30
2022-11-25T11:06:49.300Z,3.29
2022-11-25T11:09:40.725Z,3.19
2022-11-25T11:12:32.142Z,4.14
2022-11-25T11:15:25.821Z,3.30
2022-11-25T11:18:30.369Z,3.49
2022-11-25T11:21:34.240Z,3.97
2022-11-25T11:24:30.324Z,4.89
2022-11-25T11:27:24.835Z,3.87
2022-11-25T11:30:29.800Z,3.37
2022-11-25T11:33:30.268Z,2.81
2022-11-25T11:36:55.722Z,3.27
2022-11-25T11:40:12.446Z,3.21
2022-11-25T11:43:15.983Z,3.19
2022-11-25T11:46:28.801Z,2.97
2022-11-25T11:49:44.108Z,3.07
2022-11-25T11:52:44.550Z,2.88
2022-11-25T11:55:45.149Z,3.15
2022-11-25T11:59:08.792Z,3.18
2022-11-25T12:02:15.385Z,2.92
2022-11-25T12:05:09.807Z,3.04
2022-11-25T12:08:33.868Z,2.83
2022-11-25T12:11:49.488Z,2.89
2022-11-25T12:14:47.653Z,3.59
2022-11-25T12:17:48.605Z,3.18
2022-11-25T12:20:55.644Z,2.99
2022-11-25T12:24:05.656Z,2.87
2022-11-25T12:27:23.437Z,3.21
2022-11-25T12:30:33.975Z,3.19
2022-11-25T12:33:38.449Z,3.09
2022-11-25T12:36:43.693Z,3.18
2022-11-25T12:39:48.497Z,3.29
2022-11-25T12:42:43.802Z,3.26
2022-11-25T12:45:35.738Z,3.10
2022-11-25T12:48:27.255Z,3.31
2022-11-25T12:51:44.465Z,3.37
2022-11-25T12:55:05.170Z,3.31
2022-11-25T12:58:11.864Z,3.70
2022-11-25T13:01:21.311Z,3.46
2022-11-25T13:04:54.225Z,3.63
2022-11-25T13:08:11.745Z,3.52
2022-11-25T13:11:35.112Z,3.59
2022-11-25T13:14:27.164Z,3.88
2022-11-25T13:17:20.277Z,4.02
2022-11-25T13:20:27.375Z,3.46
2022-11-25T13:23:18.724Z,3.76
2022-11-25T13:26:28.436Z,3.48
2022-11-25T13:29:19.770Z,3.41
2022-11-25T13:32:31.431Z,3.34
2022-11-25T13:35:22.832Z,3.23
2022-11-25T13:38:49.750Z,2.98
2022-11-25T13:41:48.517Z,3.03
2022-11-25T13:44:55.880Z,3.27
2022-11-25T13:47:49.480Z,3.10
2022-11-25T13:51:09.598Z,3.05
2022-11-25T13:53:57.628Z,3.22
2022-11-25T13:57:14.653Z,3.29
2022-11-25T14:00:29.921Z,3.18
2022-11-25T14:03:41.264Z,3.29
2022-11-25T14:06:56.979Z,3.06
2022-11-25T14:10:30.531Z,2.90
2022-11-25T14:13:49.709Z,3.00
2022-11-25T14:16:44.165Z,2.99
2022-11-25T14:19:54.002Z,3.01
2022-11-25T14:23:22.713Z,3.38
2022-11-25T14:26:48.191Z,3.39
2022-11-25T14:30:03.849Z,3.17
2022-11-25T14:33:09.604Z,3.37
2022-11-25T14:36:09.165Z,3.41
2022-11-25T14:39:17.858Z,3.99
2022-11-25T14:42:19.361Z,3.74
2022-11-25T14:45:26.158Z,5.60
2022-11-25T14:48:20.536Z,5.15
2022-11-25T14:51:13.677Z,4.25
2022-11-25T14:54:09.412Z,5.95
2022-11-25T14:57:00.836Z,10.09
2022-11-25T14:59:56.194Z,10.84
2022-11-25T15:02:58.582Z,7.45
2022-11-25T15:06:12.668Z,5.27
2022-11-25T15:09:20.449Z,4.45
2022-11-25T15:12:17.891Z,4.35
2022-11-25T15:15:15.329Z,4.08
2022-11-25T15:18:16.946Z,4.39
2022-11-25T15:21:15.883Z,4.18
2022-11-25T15:24:29.677Z,4.07
2022-11-25T15:27:24.941Z,3.69
2022-11-25T15:30:25.599Z,4.08
2022-11-25T15:33:17.149Z,4.11
2022-11-25T15:36:09.097Z,4.28
2022-11-25T15:39:33.043Z,3.94
2022-11-25T15:42:27.984Z,4.19
2022-11-25T15:45:21.715Z,4.84
2022-11-25T15:48:26.336Z,5.47
2022-11-25T15:51:47.032Z,5.51
2022-11-25T15:54:46.042Z,4.47
2022-11-25T15:57:38.545Z,4.22
2022-11-25T16:00:30.068Z,4.49
2022-11-25T16:03:22.226Z,4.37
2022-11-25T16:06:29.942Z,4.25
2022-11-25T16:09:23.856Z,4.22
2022-11-25T16:12:17.410Z,4.13
2022-11-25T16:15:18.296Z,4.61
2022-11-25T16:18:38.710Z,4.88
2022-11-25T16:21:29.958Z,6.00
2022-11-25T16:24:36.632Z,6.53
2022-11-25T16:27:29.376Z,5.24
2022-11-25T16:30:20.945Z,5.79
2022-11-25T16:33:12.338Z,6.54
2022-11-25T16:36:08.231Z,7.06
2022-11-25T16:39:00.926Z,6.62
2022-11-25T16:41:58.466Z,6.77
2022-11-25T16:44:52.280Z,6.27
2022-11-25T16:47:43.665Z,5.49
2022-11-25T16:50:35.102Z,4.67
2022-11-25T16:53:26.574Z,4.39
2022-11-25T16:56:27.866Z,4.76
2022-11-25T16:59:25.146Z,4.41
2022-11-25T17:02:20.019Z,4.68
2022-11-25T17:05:20.319Z,4.67
2022-11-25T17:08:12.179Z,4.74
2022-11-25T17:11:03.810Z,4.66
2022-11-25T17:13:58.843Z,4.89
2022-11-25T17:16:50.757Z,4.77
2022-11-25T17:19:42.193Z,4.62
2022-11-25T17:22:38.932Z,4.16
2022-11-25T17:25:37.030Z,3.85
2022-11-25T17:28:28.950Z,3.51
2022-11-25T17:31:24.795Z,3.33
2022-11-25T17:34:17.791Z,3.63
2022-11-25T17:37:20.775Z,3.44
2022-11-25T17:40:23.565Z,3.31
2022-11-25T17:43:18.402Z,3.12
2022-11-25T17:46:14.942Z,3.74
2022-11-25T17:49:14.544Z,3.09
2022-11-25T17:52:07.155Z,3.48
2022-11-25T17:54:58.578Z,3.64
2022-11-25T17:57:50.443Z,3.43
2022-11-25T18:00:43.329Z,3.68
2022-11-25T18:03:35.338Z,3.36
2022-11-25T18:06:26.718Z,3.91
2022-11-25T18:09:19.032Z,3.65
2022-11-25T18:12:21.927Z,3.74
2022-11-25T18:15:19.875Z,3.62
2022-11-25T18:18:23.205Z,3.62
2022-11-25T18:21:14.576Z,3.27
2022-11-25T18:24:06.220Z,3.04
2022-11-25T18:26:57.776Z,2.68
2022-11-25T18:29:50.102Z,2.65
2022-11-25T18:32:41.623Z,3.11
2022-11-25T18:35:36.552Z,3.16
2022-11-25T18:38:28.449Z,2.98
2022-11-25T18:41:21.777Z,2.72
2022-11-25T18:44:26.320Z,2.33
2022-11-25T18:47:17.941Z,2.92
2022-11-25T18:50:21.356Z,3.19
2022-11-25T18:53:13.782Z,3.22
2022-11-25T18:56:05.436Z,2.86
2022-11-25T18:58:57.351Z,3.17
2022-11-25T19:01:50.081Z,3.18
2022-11-25T19:04:41.884Z,3.37
2022-11-25T19:07:33.304Z,3.45
2022-11-25T19:10:29.665Z,3.29
2022-11-25T19:13:30.920Z,3.35
2022-11-25T19:16:23.857Z,3.16
2022-11-25T19:19:17.003Z,3.42
2022-11-25T19:22:13.345Z,3.89
2022-11-25T19:25:05.039Z,4.28
2022-11-25T19:28:00.278Z,5.29
2022-11-25T19:30:58.195Z,7.12
2022-11-25T19:33:51.401Z,14.20
2022-11-25T19:36:42.895Z,13.21
2022-11-25T19:39:36.450Z,12.28
2022-11-25T19:42:27.948Z,9.41
2022-11-25T19:45:20.607Z,7.31
2022-11-25T19:48:18.370Z,6.09
2022-11-25T19:51:10.421Z,4.14
2022-11-25T19:54:01.819Z,3.35
2022-11-25T19:56:53.197Z,3.46
2022-11-25T19:59:45.306Z,3.43
2022-11-25T20:02:37.180Z,3.57
2022-11-25T20:05:36.334Z,3.46
2022-11-25T20:08:29.005Z,3.61
2022-11-25T20:11:20.423Z,4.01
2022-11-25T20:14:11.840Z,4.17
2022-11-25T20:17:03.390Z,4.52
2022-11-25T20:20:07.581Z,4.23
2022-11-25T20:23:08.037Z,3.91
2022-11-25T20:25:59.417Z,3.54
2022-11-25T20:28:50.840Z,3.96
2022-11-25T20:31:42.281Z,4.08
2022-11-25T20:34:38.831Z,3.53
2022-11-25T20:37:33.392Z,3.55
2022-11-25T20:40:30.063Z,4.10
2022-11-25T20:43:29.282Z,3.93
2022-11-25T20:46:23.543Z,4.21
2022-11-25T20:49:26.324Z,4.16
2022-11-25T20:52:30.720Z,4.36
2022-11-25T20:55:24.958Z,3.81
2022-11-25T20:58:28.995Z,3.85
2022-11-25T21:01:20.839Z,4.40
2022-11-25T21:04:12.296Z,5.06
2022-11-25T21:07:04.925Z,4.89
2022-11-25T21:09:56.450Z,4.45
2022-11-25T21:12:49.036Z,4.37
2022-11-25T21:15:40.500Z,4.24
2022-11-25T21:18:32.013Z,4.35
2022-11-25T21:21:34.212Z,4.14
2022-11-25T21:24:32.753Z,4.17
2022-11-25T21:27:25.965Z,4.38
2022-11-25T21:30:24.249Z,3.95
2022-11-25T21:33:15.889Z,4.77
2022-11-25T21:36:15.340Z,4.20
2022-11-25T21:39:16.646Z,4.47
2022-11-25T21:42:18.752Z,4.17
2022-11-25T21:45:17.031Z,3.97
2022-11-25T21:48:28.719Z,4.06
2022-11-25T21:51:20.663Z,3.69
2022-11-25T21:54:12.071Z,3.45
2022-11-25T21:57:03.734Z,3.16
2022-11-25T21:59:55.832Z,3.25
2022-11-25T22:02:47.493Z,3.05
2022-11-25T22:05:38.949Z,3.10
2022-11-25T22:08:30.376Z,3.28
2022-11-25T22:11:30.047Z,3.38
2022-11-25T22:14:29.485Z,3.18
2022-11-25T22:17:21.369Z,2.86
2022-11-25T22:20:29.117Z,2.86
2022-11-25T22:23:21.489Z,3.41
2022-11-25T22:26:25.124Z,2.93
2022-11-25T22:29:21.324Z,3.05
2022-11-25T22:32:15.322Z,2.68
2022-11-25T22:35:19.030Z,2.66
2022-11-25T22:38:18.571Z,2.80
2022-11-25T22:41:10.816Z,2.66
2022-11-25T22:44:02.559Z,2.52
2022-11-25T22:46:54.539Z,2.67
2022-11-25T22:49:47.993Z,2.65
2022-11-25T22:52:39.661Z,2.77
2022-11-25T22:55:33.112Z,2.98
2022-11-25T22:58:28.411Z,3.05
2022-11-25T23:01:20.313Z,2.77
2022-11-25T23:04:18.783Z,2.79
2022-11-25T23:07:12.498Z,2.92
2022-11-25T23:10:13.354Z,2.86
2022-11-25T23:13:04.734Z,2.43
2022-11-25T23:15:58.775Z,2.95
2022-11-25T23:18:50.185Z,2.59
2022-11-25T23:21:42.013Z,2.57
2022-11-25T23:24:33.531Z,2.62
2022-11-25T23:27:24.976Z,2.84
2022-11-25T23:30:22.941Z,2.52
2022-11-25T23:33:39.643Z,2.71
2022-11-25T23:36:42.823Z,2.56
2022-11-25T23:39:34.331Z,2.51
2022-11-25T23:42:25.839Z,2.59
2022-11-25T23:45:20.904Z,2.63
2022-11-25T23:48:12.584Z,3.05
2022-11-25T23:51:04.132Z,2.52
2022-11-25T23:53:57.455Z,2.65
2022-11-25T23:56:48.922Z,2.47
2022-11-25T23:59:40.337Z,2.48
